Aviation Digital Data Service (ADDS)

Output produced by TAFs form (1331 UTC 16 August 2017)
found at http://aviationweather.gov/adds/tafs/
 
KPUB 161126Z 1612/1712 04003KT P6SM BKN120 
     FM161900 11007KT P6SM FEW060 SCT120 
     FM162200 10011KT P6SM VCTS BKN060CB BKN120 
     FM170200 05007KT P6SM FEW120 BKN150